Tyringham, MA

5:35 PM EDT on September 02, 2014 (GMT -0400)
Shaw Pond | Change Station
CLOSE
Current Station
Personal Weather Station
Location: Becket, MA
Elevation: 1377 ft
Nearby Weather Stations

Elev 1377 ft 42.26 °N, 73.13 °W | Updated 5 minutes ago

Mostly Cloudy
Mostly Cloudy
81.9 °F
Feels Like 87 °F
N
0.0
Wind Variable Wind from ENE
Gusts 0.0 mph

Today
High -- | Low -- °F
--% Chance of Precip.
Yesterday
High -- | Low -- °F
Precip. -- in
6:19 AM 7:25 PM
First Quarter, 55% visible
Pressure 29.77 in
Visibility 9.0 miles
Clouds Few 2900 ft
Scattered Clouds 3700 ft
Mostly Cloudy 4500 ft
Heat Index 87 °F
Dew Point 73 °F
Humidity 75%
Rainfall 0.00 in
Snow Depth Not available.
UV 1 out of 12
Pollen 7.30 out of 12
PM2.5 Moderate
Flu Activity Not available.
METAR KPSF 022054Z AUTO 33003KT 9SM FEW029 SCT037 BKN045 24/22 A2984 RMK AO2 PK WND 01027/2009 RAB06E42 TSB1957E32 SLP081 P0042 60042 T02440217 55011

More Conditions Fewer Conditions

Pressure 29.77 in
Visibility 9.0 miles
Clouds Few 2900 ft
Scattered Clouds 3700 ft
Mostly Cloudy 4500 ft
Heat Index 87 °F
Dew Point 73 °F
Humidity 75%
Rainfall 0.00 in
Snow Depth Not available.
UV 1 out of 12
Pollen 7.30 out of 12
PM2.5 Moderate
Flu Activity Not available.
METAR KPSF 022054Z AUTO 33003KT 9SM FEW029 SCT037 BKN045 24/22 A2984 RMK AO2 PK WND 01027/2009 RAB06E42 TSB1957E32 SLP081 P0042 60042 T02440217 55011

More Conditions Fewer Conditions

10-Day Weather Forecast

Almanac

Astronomy

Sep. 02, 2014 Rise Set
Actual Time 6:19 AM EDT 7:25 PM EDT
Civil Twilight 5:50 AM EDT 7:53 PM EDT
Nautical Twilight 5:15 AM EDT 8:28 PM EDT
Astronomical Twilight 4:39 AM EDT 9:03 PM EDT
Moon 2:08 PM EDT No Moon Set
Length of Visible Light 14h 03m
Length of Day
13h 05m
Tomorrow will be 2m 45s shorter.
First Quarter, 55% of the Moon is Illuminated
Today
First Quarter
Sep 8
Full
Sep 15
Last Quarter
Sep 24
New
Oct 1
First Quarter

Today's Extremes

State Highs State Lows

Community

WunderPhotos

Upload Photos

1,749,776 photos uploaded!

Nearby

Air Quality

  Air Quality AQ Index Pollutant
Yesterday Good
PM2.5
Current Moderate
PM2.5
Tuesday Moderate
PM2.5
Tuesday Good
OZONE
Wednesday Good
PM2.5
Wednesday Good
OZONE

Snow Depth

Station Depth Elevation
No new snow has been reported.

Earthquake Activity

City Distance Mag. Time & Date
No recent earthquake activity has been reported nearby.
Minimum magnitude displayed is 2.5.

Coastal Water Temperatures

Place Temperature
No Stations Reporting

Nearby Weather Stations